sensor_id;sensor_type;location;lat;lon;timestamp;P1;durP1;ratioP1;P2;durP2;ratioP2
44842;SDS011;31884;52.538;13.820;2022-10-22T00:01:53;20.30;;;10.90;;
44842;SDS011;31884;52.538;13.820;2022-10-22T00:04:19;17.77;;;9.55;;
44842;SDS011;31884;52.538;13.820;2022-10-22T00:06:44;12.70;;;9.43;;
44842;SDS011;31884;52.538;13.820;2022-10-22T00:09:10;15.48;;;10.15;;
44842;SDS011;31884;52.538;13.820;2022-10-22T00:11:37;14.93;;;8.85;;
44842;SDS011;31884;52.538;13.820;2022-10-22T00:14:02;14.65;;;9.52;;
44842;SDS011;31884;52.538;13.820;2022-10-22T00:16:28;14.98;;;10.38;;
44842;SDS011;31884;52.538;13.820;2022-10-22T00:18:54;14.20;;;10.23;;
44842;SDS011;31884;52.538;13.820;2022-10-22T00:21:19;15.90;;;8.50;;
44842;SDS011;31884;52.538;13.820;2022-10-22T00:23:45;15.43;;;10.43;;
44842;SDS011;31884;52.538;13.820;2022-10-22T00:26:10;16.73;;;11.65;;
44842;SDS011;31884;52.538;13.820;2022-10-22T00:28:36;13.30;;;9.75;;
44842;SDS011;31884;52.538;13.820;2022-10-22T00:31:02;12.90;;;9.93;;
44842;SDS011;31884;52.538;13.820;2022-10-22T00:33:28;13.27;;;9.27;;
44842;SDS011;31884;52.538;13.820;2022-10-22T00:35:54;14.40;;;9.02;;
44842;SDS011;31884;52.538;13.820;2022-10-22T00:38:20;15.35;;;10.32;;
44842;SDS011;31884;52.538;13.820;2022-10-22T00:40:45;15.57;;;9.68;;
44842;SDS011;31884;52.538;13.820;2022-10-22T00:43:12;15.23;;;10.35;;
44842;SDS011;31884;52.538;13.820;2022-10-22T00:45:39;15.95;;;9.82;;
44842;SDS011;31884;52.538;13.820;2022-10-22T00:48:08;16.42;;;10.73;;
44842;SDS011;31884;52.538;13.820;2022-10-22T00:50:55;13.38;;;9.55;;
44842;SDS011;31884;52.538;13.820;2022-10-22T00:53:31;17.30;;;11.10;;
44842;SDS011;31884;52.538;13.820;2022-10-22T00:56:00;19.20;;;12.25;;
44842;SDS011;31884;52.538;13.820;2022-10-22T00:58:27;17.42;;;12.77;;
44842;SDS011;31884;52.538;13.820;2022-10-22T01:00:55;16.80;;;11.57;;
44842;SDS011;31884;52.538;13.820;2022-10-22T01:03:21;15.07;;;10.38;;
44842;SDS011;31884;52.538;13.820;2022-10-22T01:05:55;14.82;;;9.95;;
44842;SDS011;31884;52.538;13.820;2022-10-22T01:08:27;15.30;;;10.73;;
44842;SDS011;31884;52.538;13.820;2022-10-22T01:11:25;14.02;;;10.23;;
44842;SDS011;31884;52.538;13.820;2022-10-22T01:22:21;16.08;;;9.32;;
44842;SDS011;31884;52.538;13.820;2022-10-22T01:25:07;12.75;;;10.07;;
44842;SDS011;31884;52.538;13.820;2022-10-22T01:28:20;18.23;;;10.40;;
44842;SDS011;31884;52.538;13.820;2022-10-22T01:30:43;17.55;;;10.48;;
44842;SDS011;31884;52.538;13.820;2022-10-22T01:33:10;13.48;;;9.20;;
44842;SDS011;31884;52.538;13.820;2022-10-22T01:35:39;16.48;;;10.60;;
44842;SDS011;31884;52.538;13.820;2022-10-22T01:38:08;16.42;;;10.48;;
44842;SDS011;31884;52.538;13.820;2022-10-22T01:40:39;17.20;;;9.77;;
44842;SDS011;31884;52.538;13.820;2022-10-22T01:43:07;15.90;;;10.32;;
44842;SDS011;31884;52.538;13.820;2022-10-22T01:45:35;14.02;;;10.02;;
44842;SDS011;31884;52.538;13.820;2022-10-22T02:00:08;15.77;;;8.98;;
44842;SDS011;31884;52.538;13.820;2022-10-22T02:02:52;11.18;;;8.43;;
44842;SDS011;31884;52.538;13.820;2022-10-22T02:05:35;14.63;;;9.60;;
44842;SDS011;31884;52.538;13.820;2022-10-22T02:08:08;13.10;;;9.18;;
44842;SDS011;31884;52.538;13.820;2022-10-22T02:10:40;14.80;;;9.57;;
44842;SDS011;31884;52.538;13.820;2022-10-22T02:13:09;16.13;;;9.43;;
44842;SDS011;31884;52.538;13.820;2022-10-22T02:15:39;13.27;;;9.13;;
44842;SDS011;31884;52.538;13.820;2022-10-22T02:18:09;17.67;;;10.15;;
44842;SDS011;31884;52.538;13.820;2022-10-22T02:20:36;13.02;;;9.27;;
44842;SDS011;31884;52.538;13.820;2022-10-22T02:23:04;14.75;;;9.25;;
44842;SDS011;31884;52.538;13.820;2022-10-22T02:25:34;17.30;;;10.40;;
44842;SDS011;31884;52.538;13.820;2022-10-22T02:28:04;12.15;;;9.20;;
44842;SDS011;31884;52.538;13.820;2022-10-22T02:31:18;15.13;;;9.88;;
44842;SDS011;31884;52.538;13.820;2022-10-22T02:33:49;12.60;;;9.27;;
44842;SDS011;31884;52.538;13.820;2022-10-22T02:36:18;17.30;;;10.43;;
44842;SDS011;31884;52.538;13.820;2022-10-22T02:38:48;14.23;;;9.60;;
44842;SDS011;31884;52.538;13.820;2022-10-22T02:41:15;14.35;;;10.15;;
44842;SDS011;31884;52.538;13.820;2022-10-22T02:43:41;15.02;;;10.45;;
44842;SDS011;31884;52.538;13.820;2022-10-22T02:46:08;14.23;;;10.05;;
44842;SDS011;31884;52.538;13.820;2022-10-22T02:48:35;14.40;;;8.88;;
44842;SDS011;31884;52.538;13.820;2022-10-22T02:51:01;12.07;;;8.63;;
44842;SDS011;31884;52.538;13.820;2022-10-22T02:53:26;12.55;;;8.43;;
44842;SDS011;31884;52.538;13.820;2022-10-22T02:55:52;10.75;;;7.55;;
44842;SDS011;31884;52.538;13.820;2022-10-22T02:58:17;13.55;;;10.10;;
44842;SDS011;31884;52.538;13.820;2022-10-22T03:00:43;15.60;;;9.50;;
44842;SDS011;31884;52.538;13.820;2022-10-22T03:03:08;15.57;;;10.27;;
44842;SDS011;31884;52.538;13.820;2022-10-22T03:05:34;13.70;;;9.40;;
44842;SDS011;31884;52.538;13.820;2022-10-22T03:07:59;16.42;;;10.85;;
44842;SDS011;31884;52.538;13.820;2022-10-22T03:10:25;15.90;;;9.70;;
44842;SDS011;31884;52.538;13.820;2022-10-22T03:12:50;12.13;;;8.93;;
44842;SDS011;31884;52.538;13.820;2022-10-22T03:15:16;13.50;;;9.25;;
44842;SDS011;31884;52.538;13.820;2022-10-22T03:17:41;13.90;;;9.38;;
44842;SDS011;31884;52.538;13.820;2022-10-22T03:20:07;13.82;;;9.32;;
44842;SDS011;31884;52.538;13.820;2022-10-22T03:22:32;14.73;;;9.88;;
44842;SDS011;31884;52.538;13.820;2022-10-22T03:25:02;13.75;;;9.35;;
44842;SDS011;31884;52.538;13.820;2022-10-22T03:27:31;14.82;;;9.20;;
44842;SDS011;31884;52.538;13.820;2022-10-22T03:29:58;14.60;;;8.50;;
44842;SDS011;31884;52.538;13.820;2022-10-22T03:32:24;15.95;;;10.55;;
44842;SDS011;31884;52.538;13.820;2022-10-22T03:34:49;13.25;;;9.52;;
44842;SDS011;31884;52.538;13.820;2022-10-22T03:37:15;14.95;;;9.73;;
44842;SDS011;31884;52.538;13.820;2022-10-22T03:39:41;15.02;;;9.63;;
44842;SDS011;31884;52.538;13.820;2022-10-22T03:42:06;13.52;;;9.90;;
44842;SDS011;31884;52.538;13.820;2022-10-22T03:44:34;13.90;;;9.73;;
44842;SDS011;31884;52.538;13.820;2022-10-22T03:47:01;13.68;;;9.23;;
44842;SDS011;31884;52.538;13.820;2022-10-22T03:49:26;17.42;;;10.38;;
44842;SDS011;31884;52.538;13.820;2022-10-22T03:51:51;15.40;;;9.40;;
44842;SDS011;31884;52.538;13.820;2022-10-22T03:54:17;15.02;;;9.75;;
44842;SDS011;31884;52.538;13.820;2022-10-22T03:56:42;12.35;;;8.80;;
44842;SDS011;31884;52.538;13.820;2022-10-22T03:59:08;18.08;;;10.38;;
44842;SDS011;31884;52.538;13.820;2022-10-22T04:01:33;12.68;;;7.97;;
44842;SDS011;31884;52.538;13.820;2022-10-22T04:03:59;13.18;;;10.00;;
44842;SDS011;31884;52.538;13.820;2022-10-22T04:06:25;13.80;;;8.75;;
44842;SDS011;31884;52.538;13.820;2022-10-22T04:08:50;12.85;;;9.57;;
44842;SDS011;31884;52.538;13.820;2022-10-22T04:11:16;16.25;;;9.30;;
44842;SDS011;31884;52.538;13.820;2022-10-22T04:13:42;12.80;;;8.73;;
44842;SDS011;31884;52.538;13.820;2022-10-22T04:18:41;14.95;;;9.13;;
44842;SDS011;31884;52.538;13.820;2022-10-22T04:21:08;15.48;;;9.70;;
44842;SDS011;31884;52.538;13.820;2022-10-22T04:23:34;14.02;;;8.98;;
44842;SDS011;31884;52.538;13.820;2022-10-22T04:26:01;14.05;;;9.65;;
44842;SDS011;31884;52.538;13.820;2022-10-22T04:28:28;17.02;;;9.65;;
44842;SDS011;31884;52.538;13.820;2022-10-22T04:30:54;14.20;;;8.95;;
44842;SDS011;31884;52.538;13.820;2022-10-22T04:33:19;14.60;;;9.68;;
44842;SDS011;31884;52.538;13.820;2022-10-22T04:35:45;10.63;;;7.22;;
44842;SDS011;31884;52.538;13.820;2022-10-22T04:38:11;12.93;;;8.48;;
44842;SDS011;31884;52.538;13.820;2022-10-22T04:40:36;16.20;;;10.55;;
44842;SDS011;31884;52.538;13.820;2022-10-22T04:43:02;14.35;;;9.05;;
44842;SDS011;31884;52.538;13.820;2022-10-22T04:45:28;12.65;;;8.40;;
44842;SDS011;31884;52.538;13.820;2022-10-22T04:47:53;14.65;;;9.88;;
44842;SDS011;31884;52.538;13.820;2022-10-22T04:50:19;12.07;;;8.65;;
44842;SDS011;31884;52.538;13.820;2022-10-22T04:52:44;13.05;;;8.35;;
44842;SDS011;31884;52.538;13.820;2022-10-22T04:55:09;12.20;;;7.90;;
44842;SDS011;31884;52.538;13.820;2022-10-22T04:57:35;12.77;;;9.13;;
44842;SDS011;31884;52.538;13.820;2022-10-22T05:00:01;13.48;;;9.75;;
44842;SDS011;31884;52.538;13.820;2022-10-22T05:02:26;18.00;;;10.27;;
44842;SDS011;31884;52.538;13.820;2022-10-22T05:04:52;17.50;;;9.57;;
44842;SDS011;31884;52.538;13.820;2022-10-22T05:07:17;12.90;;;8.45;;
44842;SDS011;31884;52.538;13.820;2022-10-22T05:09:43;13.73;;;9.40;;
44842;SDS011;31884;52.538;13.820;2022-10-22T05:12:08;16.23;;;9.10;;
44842;SDS011;31884;52.538;13.820;2022-10-22T05:14:34;15.18;;;9.73;;
44842;SDS011;31884;52.538;13.820;2022-10-22T05:16:59;15.57;;;10.15;;
44842;SDS011;31884;52.538;13.820;2022-10-22T05:19:26;14.10;;;8.45;;
44842;SDS011;31884;52.538;13.820;2022-10-22T05:21:54;14.90;;;9.38;;
44842;SDS011;31884;52.538;13.820;2022-10-22T05:24:22;16.45;;;9.90;;
44842;SDS011;31884;52.538;13.820;2022-10-22T05:26:49;18.10;;;10.60;;
44842;SDS011;31884;52.538;13.820;2022-10-22T05:29:15;15.70;;;10.00;;
44842;SDS011;31884;52.538;13.820;2022-10-22T05:31:40;12.00;;;8.60;;
44842;SDS011;31884;52.538;13.820;2022-10-22T05:34:06;14.50;;;9.45;;
44842;SDS011;31884;52.538;13.820;2022-10-22T05:36:32;12.70;;;8.40;;
44842;SDS011;31884;52.538;13.820;2022-10-22T05:38:57;16.40;;;10.73;;
44842;SDS011;31884;52.538;13.820;2022-10-22T05:41:24;13.43;;;8.52;;
44842;SDS011;31884;52.538;13.820;2022-10-22T05:43:52;15.38;;;8.65;;
44842;SDS011;31884;52.538;13.820;2022-10-22T05:46:23;14.30;;;9.60;;
44842;SDS011;31884;52.538;13.820;2022-10-22T05:48:51;15.27;;;9.15;;
44842;SDS011;31884;52.538;13.820;2022-10-22T05:51:18;15.63;;;10.27;;
44842;SDS011;31884;52.538;13.820;2022-10-22T05:53:44;14.57;;;9.13;;
44842;SDS011;31884;52.538;13.820;2022-10-22T05:56:13;14.23;;;8.90;;
44842;SDS011;31884;52.538;13.820;2022-10-22T05:58:40;16.70;;;9.77;;
44842;SDS011;31884;52.538;13.820;2022-10-22T06:01:08;16.38;;;10.13;;
44842;SDS011;31884;52.538;13.820;2022-10-22T06:03:36;14.57;;;9.45;;
44842;SDS011;31884;52.538;13.820;2022-10-22T06:06:04;21.27;;;10.77;;
44842;SDS011;31884;52.538;13.820;2022-10-22T06:08:42;19.38;;;10.02;;
44842;SDS011;31884;52.538;13.820;2022-10-22T06:11:09;18.13;;;10.25;;
44842;SDS011;31884;52.538;13.820;2022-10-22T06:13:34;14.38;;;9.27;;
44842;SDS011;31884;52.538;13.820;2022-10-22T06:16:00;14.63;;;9.63;;
44842;SDS011;31884;52.538;13.820;2022-10-22T06:18:25;13.73;;;8.88;;
44842;SDS011;31884;52.538;13.820;2022-10-22T06:20:51;18.15;;;10.70;;
44842;SDS011;31884;52.538;13.820;2022-10-22T06:23:16;16.15;;;9.73;;
44842;SDS011;31884;52.538;13.820;2022-10-22T06:25:42;17.83;;;10.50;;
44842;SDS011;31884;52.538;13.820;2022-10-22T06:28:07;18.60;;;9.95;;
44842;SDS011;31884;52.538;13.820;2022-10-22T06:30:33;14.73;;;8.20;;
44842;SDS011;31884;52.538;13.820;2022-10-22T06:33:00;15.20;;;9.55;;
44842;SDS011;31884;52.538;13.820;2022-10-22T06:35:26;18.65;;;10.32;;
44842;SDS011;31884;52.538;13.820;2022-10-22T06:37:51;17.73;;;9.55;;
44842;SDS011;31884;52.538;13.820;2022-10-22T06:40:17;13.70;;;8.90;;
44842;SDS011;31884;52.538;13.820;2022-10-22T06:42:43;15.30;;;9.57;;
44842;SDS011;31884;52.538;13.820;2022-10-22T06:45:08;17.88;;;9.50;;
44842;SDS011;31884;52.538;13.820;2022-10-22T06:47:34;16.65;;;10.63;;
44842;SDS011;31884;52.538;13.820;2022-10-22T06:50:00;13.07;;;8.55;;
44842;SDS011;31884;52.538;13.820;2022-10-22T06:52:25;20.38;;;11.05;;
44842;SDS011;31884;52.538;13.820;2022-10-22T06:54:51;16.90;;;10.77;;
44842;SDS011;31884;52.538;13.820;2022-10-22T06:57:16;16.33;;;9.82;;
44842;SDS011;31884;52.538;13.820;2022-10-22T06:59:42;16.00;;;9.57;;
44842;SDS011;31884;52.538;13.820;2022-10-22T07:02:08;15.77;;;10.32;;
44842;SDS011;31884;52.538;13.820;2022-10-22T07:04:34;15.10;;;9.68;;
44842;SDS011;31884;52.538;13.820;2022-10-22T07:07:00;15.70;;;9.43;;
44842;SDS011;31884;52.538;13.820;2022-10-22T07:09:25;15.68;;;9.80;;
44842;SDS011;31884;52.538;13.820;2022-10-22T07:11:51;12.45;;;8.73;;
44842;SDS011;31884;52.538;13.820;2022-10-22T07:14:16;13.40;;;8.77;;
44842;SDS011;31884;52.538;13.820;2022-10-22T07:16:42;12.57;;;8.32;;
44842;SDS011;31884;52.538;13.820;2022-10-22T07:19:09;12.15;;;8.50;;
44842;SDS011;31884;52.538;13.820;2022-10-22T07:21:35;14.55;;;9.07;;
44842;SDS011;31884;52.538;13.820;2022-10-22T07:24:01;13.48;;;8.95;;
44842;SDS011;31884;52.538;13.820;2022-10-22T07:26:27;11.50;;;8.07;;
44842;SDS011;31884;52.538;13.820;2022-10-22T07:28:54;15.18;;;10.25;;
44842;SDS011;31884;52.538;13.820;2022-10-22T07:31:21;11.07;;;7.57;;
44842;SDS011;31884;52.538;13.820;2022-10-22T07:33:46;11.38;;;8.07;;
44842;SDS011;31884;52.538;13.820;2022-10-22T07:36:13;14.02;;;8.52;;
44842;SDS011;31884;52.538;13.820;2022-10-22T07:38:42;10.05;;;8.00;;
44842;SDS011;31884;52.538;13.820;2022-10-22T07:41:12;11.25;;;8.05;;
44842;SDS011;31884;52.538;13.820;2022-10-22T07:43:38;12.55;;;8.73;;
44842;SDS011;31884;52.538;13.820;2022-10-22T07:46:04;9.98;;;7.05;;
44842;SDS011;31884;52.538;13.820;2022-10-22T07:48:29;10.90;;;7.57;;
44842;SDS011;31884;52.538;13.820;2022-10-22T07:50:55;13.15;;;9.10;;
44842;SDS011;31884;52.538;13.820;2022-10-22T07:53:22;10.77;;;8.48;;
44842;SDS011;31884;52.538;13.820;2022-10-22T07:55:48;12.93;;;9.10;;
44842;SDS011;31884;52.538;13.820;2022-10-22T07:58:15;12.93;;;8.70;;
44842;SDS011;31884;52.538;13.820;2022-10-22T08:00:44;9.20;;;7.35;;
44842;SDS011;31884;52.538;13.820;2022-10-22T08:03:10;13.93;;;8.32;;
44842;SDS011;31884;52.538;13.820;2022-10-22T08:05:36;12.35;;;9.27;;
44842;SDS011;31884;52.538;13.820;2022-10-22T08:08:03;10.73;;;7.85;;
44842;SDS011;31884;52.538;13.820;2022-10-22T08:10:30;11.80;;;8.05;;
44842;SDS011;31884;52.538;13.820;2022-10-22T08:12:55;10.00;;;7.40;;
44842;SDS011;31884;52.538;13.820;2022-10-22T08:15:21;10.85;;;8.07;;
44842;SDS011;31884;52.538;13.820;2022-10-22T08:17:48;11.98;;;8.57;;
44842;SDS011;31884;52.538;13.820;2022-10-22T08:20:14;11.35;;;8.63;;
44842;SDS011;31884;52.538;13.820;2022-10-22T08:22:40;10.73;;;8.48;;
44842;SDS011;31884;52.538;13.820;2022-10-22T08:25:05;10.65;;;8.18;;
44842;SDS011;31884;52.538;13.820;2022-10-22T08:27:31;8.95;;;7.18;;
44842;SDS011;31884;52.538;13.820;2022-10-22T08:29:57;10.98;;;9.00;;
44842;SDS011;31884;52.538;13.820;2022-10-22T08:32:22;15.95;;;12.00;;
44842;SDS011;31884;52.538;13.820;2022-10-22T08:34:48;14.95;;;11.60;;
44842;SDS011;31884;52.538;13.820;2022-10-22T08:37:13;10.02;;;8.65;;
44842;SDS011;31884;52.538;13.820;2022-10-22T08:39:40;12.63;;;9.73;;
44842;SDS011;31884;52.538;13.820;2022-10-22T08:42:19;11.60;;;8.63;;
44842;SDS011;31884;52.538;13.820;2022-10-22T08:50:11;10.55;;;8.45;;
44842;SDS011;31884;52.538;13.820;2022-10-22T08:52:41;13.80;;;9.75;;
44842;SDS011;31884;52.538;13.820;2022-10-22T08:55:13;10.05;;;7.15;;
44842;SDS011;31884;52.538;13.820;2022-10-22T08:57:49;9.13;;;7.63;;
44842;SDS011;31884;52.538;13.820;2022-10-22T09:06:16;11.90;;;7.80;;
44842;SDS011;31884;52.538;13.820;2022-10-22T09:08:48;11.15;;;8.50;;
44842;SDS011;31884;52.538;13.820;2022-10-22T09:13:45;8.77;;;7.05;;
44842;SDS011;31884;52.538;13.820;2022-10-22T09:16:19;12.40;;;8.82;;
44842;SDS011;31884;52.538;13.820;2022-10-22T09:18:58;14.55;;;8.23;;
44842;SDS011;31884;52.538;13.820;2022-10-22T09:21:49;7.72;;;6.75;;
44842;SDS011;31884;52.538;13.820;2022-10-22T09:26:51;10.65;;;7.38;;
44842;SDS011;31884;52.538;13.820;2022-10-22T09:29:18;10.18;;;8.27;;
44842;SDS011;31884;52.538;13.820;2022-10-22T09:31:47;9.35;;;8.07;;
44842;SDS011;31884;52.538;13.820;2022-10-22T09:34:13;10.35;;;7.00;;
44842;SDS011;31884;52.538;13.820;2022-10-22T09:36:39;10.57;;;8.40;;
44842;SDS011;31884;52.538;13.820;2022-10-22T09:39:12;10.13;;;7.40;;
44842;SDS011;31884;52.538;13.820;2022-10-22T09:42:08;9.48;;;7.25;;
44842;SDS011;31884;52.538;13.820;2022-10-22T09:44:35;10.95;;;7.72;;
44842;SDS011;31884;52.538;13.820;2022-10-22T09:47:05;14.20;;;7.25;;
44842;SDS011;31884;52.538;13.820;2022-10-22T09:49:32;9.60;;;7.50;;
44842;SDS011;31884;52.538;13.820;2022-10-22T09:51:59;9.10;;;7.68;;
44842;SDS011;31884;52.538;13.820;2022-10-22T09:54:47;14.65;;;7.65;;
44842;SDS011;31884;52.538;13.820;2022-10-22T09:57:17;10.75;;;6.03;;
44842;SDS011;31884;52.538;13.820;2022-10-22T09:59:47;7.75;;;6.70;;
44842;SDS011;31884;52.538;13.820;2022-10-22T10:02:15;10.38;;;7.10;;
44842;SDS011;31884;52.538;13.820;2022-10-22T10:04:48;9.93;;;7.43;;
44842;SDS011;31884;52.538;13.820;2022-10-22T10:07:16;12.00;;;7.28;;
44842;SDS011;31884;52.538;13.820;2022-10-22T10:09:54;10.15;;;6.28;;
44842;SDS011;31884;52.538;13.820;2022-10-22T10:18:07;7.95;;;6.10;;
44842;SDS011;31884;52.538;13.820;2022-10-22T10:21:08;8.63;;;6.63;;
44842;SDS011;31884;52.538;13.820;2022-10-22T10:24:21;10.23;;;7.18;;
44842;SDS011;31884;52.538;13.820;2022-10-22T10:27:01;8.40;;;6.88;;
44842;SDS011;31884;52.538;13.820;2022-10-22T10:29:35;10.48;;;6.53;;
44842;SDS011;31884;52.538;13.820;2022-10-22T10:37:48;9.25;;;7.47;;
44842;SDS011;31884;52.538;13.820;2022-10-22T10:43:09;9.30;;;7.20;;
44842;SDS011;31884;52.538;13.820;2022-10-22T10:48:47;7.28;;;5.90;;
44842;SDS011;31884;52.538;13.820;2022-10-22T11:08:29;7.00;;;6.25;;
44842;SDS011;31884;52.538;13.820;2022-10-22T11:13:37;8.25;;;6.70;;
44842;SDS011;31884;52.538;13.820;2022-10-22T11:21:52;9.77;;;6.85;;
44842;SDS011;31884;52.538;13.820;2022-10-22T11:24:25;14.90;;;7.53;;
44842;SDS011;31884;52.538;13.820;2022-10-22T11:27:00;9.27;;;6.63;;
44842;SDS011;31884;52.538;13.820;2022-10-22T11:29:42;10.32;;;7.20;;
44842;SDS011;31884;52.538;13.820;2022-10-22T11:34:40;9.77;;;8.05;;
44842;SDS011;31884;52.538;13.820;2022-10-22T11:37:12;10.13;;;7.97;;
44842;SDS011;31884;52.538;13.820;2022-10-22T11:39:57;8.90;;;6.78;;
44842;SDS011;31884;52.538;13.820;2022-10-22T11:42:40;9.20;;;7.18;;
44842;SDS011;31884;52.538;13.820;2022-10-22T11:50:54;10.20;;;7.65;;
44842;SDS011;31884;52.538;13.820;2022-10-22T11:53:27;12.88;;;6.97;;
44842;SDS011;31884;52.538;13.820;2022-10-22T11:55:55;8.73;;;7.25;;
44842;SDS011;31884;52.538;13.820;2022-10-22T11:58:25;11.13;;;8.00;;
44842;SDS011;31884;52.538;13.820;2022-10-22T12:11:14;18.05;;;7.20;;
44842;SDS011;31884;52.538;13.820;2022-10-22T12:16:34;17.02;;;7.47;;
44842;SDS011;31884;52.538;13.820;2022-10-22T12:21:41;11.55;;;7.90;;
44842;SDS011;31884;52.538;13.820;2022-10-22T12:24:13;11.95;;;7.68;;
44842;SDS011;31884;52.538;13.820;2022-10-22T12:26:41;11.40;;;8.15;;
44842;SDS011;31884;52.538;13.820;2022-10-22T12:29:11;10.05;;;7.38;;
44842;SDS011;31884;52.538;13.820;2022-10-22T12:31:38;11.75;;;7.53;;
44842;SDS011;31884;52.538;13.820;2022-10-22T12:34:05;13.77;;;8.07;;
44842;SDS011;31884;52.538;13.820;2022-10-22T12:36:33;10.77;;;6.47;;
44842;SDS011;31884;52.538;13.820;2022-10-22T12:39:00;9.10;;;6.85;;
44842;SDS011;31884;52.538;13.820;2022-10-22T12:41:34;10.10;;;7.43;;
44842;SDS011;31884;52.538;13.820;2022-10-22T12:44:02;11.10;;;8.25;;
44842;SDS011;31884;52.538;13.820;2022-10-22T12:46:29;8.68;;;7.05;;
44842;SDS011;31884;52.538;13.820;2022-10-22T12:48:59;11.68;;;7.45;;
44842;SDS011;31884;52.538;13.820;2022-10-22T12:51:28;11.90;;;8.00;;
44842;SDS011;31884;52.538;13.820;2022-10-22T12:53:54;11.82;;;7.65;;
44842;SDS011;31884;52.538;13.820;2022-10-22T12:56:28;10.88;;;8.05;;
44842;SDS011;31884;52.538;13.820;2022-10-22T12:59:08;13.93;;;7.77;;
44842;SDS011;31884;52.538;13.820;2022-10-22T13:01:41;10.25;;;6.97;;
44842;SDS011;31884;52.538;13.820;2022-10-22T13:04:17;12.48;;;7.50;;
44842;SDS011;31884;52.538;13.820;2022-10-22T13:06:47;12.98;;;7.30;;
44842;SDS011;31884;52.538;13.820;2022-10-22T13:09:36;11.93;;;7.97;;
44842;SDS011;31884;52.538;13.820;2022-10-22T13:12:04;9.30;;;6.32;;
44842;SDS011;31884;52.538;13.820;2022-10-22T13:14:34;13.75;;;7.28;;
44842;SDS011;31884;52.538;13.820;2022-10-22T13:17:18;10.40;;;6.68;;
44842;SDS011;31884;52.538;13.820;2022-10-22T13:19:49;11.70;;;7.40;;
44842;SDS011;31884;52.538;13.820;2022-10-22T13:22:28;10.65;;;7.30;;
44842;SDS011;31884;52.538;13.820;2022-10-22T13:25:54;8.52;;;6.97;;
44842;SDS011;31884;52.538;13.820;2022-10-22T13:28:18;8.85;;;6.22;;
44842;SDS011;31884;52.538;13.820;2022-10-22T13:30:55;8.55;;;6.10;;
44842;SDS011;31884;52.538;13.820;2022-10-22T13:33:29;6.35;;;5.18;;
44842;SDS011;31884;52.538;13.820;2022-10-22T13:36:01;9.63;;;5.57;;
44842;SDS011;31884;52.538;13.820;2022-10-22T13:38:28;9.20;;;5.03;;
44842;SDS011;31884;52.538;13.820;2022-10-22T13:40:54;8.35;;;5.70;;
44842;SDS011;31884;52.538;13.820;2022-10-22T13:43:20;7.53;;;5.43;;
44842;SDS011;31884;52.538;13.820;2022-10-22T13:45:46;8.02;;;5.45;;
44842;SDS011;31884;52.538;13.820;2022-10-22T13:48:16;5.93;;;4.65;;
44842;SDS011;31884;52.538;13.820;2022-10-22T13:50:45;7.50;;;4.55;;
44842;SDS011;31884;52.538;13.820;2022-10-22T13:53:17;5.82;;;4.25;;
44842;SDS011;31884;52.538;13.820;2022-10-22T13:55:45;4.47;;;3.67;;
44842;SDS011;31884;52.538;13.820;2022-10-22T13:58:12;7.45;;;3.80;;
44842;SDS011;31884;52.538;13.820;2022-10-22T14:00:40;4.88;;;3.45;;
44842;SDS011;31884;52.538;13.820;2022-10-22T14:03:11;5.20;;;3.40;;
44842;SDS011;31884;52.538;13.820;2022-10-22T14:05:38;5.70;;;3.45;;
44842;SDS011;31884;52.538;13.820;2022-10-22T14:08:08;4.88;;;3.08;;
44842;SDS011;31884;52.538;13.820;2022-10-22T14:10:36;4.97;;;3.50;;
44842;SDS011;31884;52.538;13.820;2022-10-22T14:13:04;4.93;;;3.33;;
44842;SDS011;31884;52.538;13.820;2022-10-22T14:15:31;4.60;;;3.30;;
44842;SDS011;31884;52.538;13.820;2022-10-22T14:17:57;3.97;;;3.08;;
44842;SDS011;31884;52.538;13.820;2022-10-22T14:20:25;3.92;;;2.63;;
44842;SDS011;31884;52.538;13.820;2022-10-22T14:22:53;5.38;;;2.55;;
44842;SDS011;31884;52.538;13.820;2022-10-22T14:25:20;4.35;;;2.70;;
44842;SDS011;31884;52.538;13.820;2022-10-22T14:27:47;3.13;;;2.22;;
44842;SDS011;31884;52.538;13.820;2022-10-22T14:30:21;3.80;;;2.38;;
44842;SDS011;31884;52.538;13.820;2022-10-22T14:32:51;4.57;;;2.75;;
44842;SDS011;31884;52.538;13.820;2022-10-22T14:35:18;2.75;;;2.40;;
44842;SDS011;31884;52.538;13.820;2022-10-22T14:37:46;4.63;;;3.17;;
44842;SDS011;31884;52.538;13.820;2022-10-22T14:40:12;5.68;;;2.92;;
44842;SDS011;31884;52.538;13.820;2022-10-22T14:42:41;4.38;;;2.40;;
44842;SDS011;31884;52.538;13.820;2022-10-22T14:45:12;4.28;;;2.15;;
44842;SDS011;31884;52.538;13.820;2022-10-22T14:47:46;3.03;;;2.55;;
44842;SDS011;31884;52.538;13.820;2022-10-22T14:50:11;3.60;;;2.50;;
44842;SDS011;31884;52.538;13.820;2022-10-22T14:52:38;4.13;;;2.95;;
44842;SDS011;31884;52.538;13.820;2022-10-22T14:55:04;6.68;;;2.90;;
44842;SDS011;31884;52.538;13.820;2022-10-22T14:57:30;4.90;;;3.08;;
44842;SDS011;31884;52.538;13.820;2022-10-22T14:59:55;7.57;;;3.65;;
44842;SDS011;31884;52.538;13.820;2022-10-22T15:02:21;6.28;;;3.05;;
44842;SDS011;31884;52.538;13.820;2022-10-22T15:04:47;7.68;;;3.40;;
44842;SDS011;31884;52.538;13.820;2022-10-22T15:07:12;4.68;;;2.58;;
44842;SDS011;31884;52.538;13.820;2022-10-22T15:09:38;5.53;;;3.28;;
44842;SDS011;31884;52.538;13.820;2022-10-22T15:12:04;5.97;;;3.33;;
44842;SDS011;31884;52.538;13.820;2022-10-22T15:14:29;9.10;;;3.80;;
44842;SDS011;31884;52.538;13.820;2022-10-22T15:16:55;7.80;;;5.00;;
44842;SDS011;31884;52.538;13.820;2022-10-22T15:19:20;8.02;;;4.35;;
44842;SDS011;31884;52.538;13.820;2022-10-22T15:21:46;7.32;;;3.78;;
44842;SDS011;31884;52.538;13.820;2022-10-22T15:24:11;6.40;;;3.67;;
44842;SDS011;31884;52.538;13.820;2022-10-22T15:26:36;6.50;;;3.80;;
44842;SDS011;31884;52.538;13.820;2022-10-22T15:29:02;10.18;;;4.85;;
44842;SDS011;31884;52.538;13.820;2022-10-22T15:34:27;5.65;;;3.85;;
44842;SDS011;31884;52.538;13.820;2022-10-22T15:36:55;9.35;;;4.15;;
44842;SDS011;31884;52.538;13.820;2022-10-22T15:39:22;8.90;;;3.80;;
44842;SDS011;31884;52.538;13.820;2022-10-22T15:41:49;3.90;;;3.30;;
44842;SDS011;31884;52.538;13.820;2022-10-22T15:44:16;3.88;;;2.90;;
44842;SDS011;31884;52.538;13.820;2022-10-22T15:46:43;5.03;;;2.90;;
44842;SDS011;31884;52.538;13.820;2022-10-22T15:49:09;7.13;;;2.53;;
44842;SDS011;31884;52.538;13.820;2022-10-22T15:51:35;5.15;;;2.83;;
44842;SDS011;31884;52.538;13.820;2022-10-22T15:54:00;5.55;;;3.25;;
44842;SDS011;31884;52.538;13.820;2022-10-22T15:56:26;5.47;;;3.08;;
44842;SDS011;31884;52.538;13.820;2022-10-22T15:58:53;6.70;;;3.35;;
44842;SDS011;31884;52.538;13.820;2022-10-22T16:01:21;7.25;;;3.03;;
44842;SDS011;31884;52.538;13.820;2022-10-22T16:03:48;4.50;;;3.10;;
44842;SDS011;31884;52.538;13.820;2022-10-22T16:06:17;5.53;;;3.60;;
44842;SDS011;31884;52.538;13.820;2022-10-22T16:08:43;5.22;;;3.20;;
44842;SDS011;31884;52.538;13.820;2022-10-22T16:11:08;10.00;;;3.03;;
44842;SDS011;31884;52.538;13.820;2022-10-22T16:13:34;8.73;;;4.03;;
44842;SDS011;31884;52.538;13.820;2022-10-22T16:16:03;6.10;;;3.03;;
44842;SDS011;31884;52.538;13.820;2022-10-22T16:18:31;7.75;;;3.35;;
44842;SDS011;31884;52.538;13.820;2022-10-22T16:20:56;6.53;;;3.45;;
44842;SDS011;31884;52.538;13.820;2022-10-22T16:23:22;6.60;;;4.20;;